Overview Statistics Trail Chart Weather Telemetry Raw packets
 

This is the latest recevied weather packets stored in our database for station/object WD7OO. If no packets are shown the sender has not sent any weather packets the latest 10 day(s).

<< 94 95 96 97 98 99 100 >>
Time Temp. Humidity Pressure Rain* Wind** Luminosity Snow
1787927090 21.67° C 81% 1022.6 hPa 0 mm - 487 W/m² -
1787926785 21.67° C 80% 1022.6 hPa 0 mm - 464 W/m² -
1787926484 21.67° C 80% 1022.7 hPa 0 mm - 431 W/m² -
1787926183 21.11° C 80% 1022.7 hPa 0 mm - 403 W/m² -
1787925882 20.56° C 83% 1022.5 hPa 0 mm - 388 W/m² -
1787925577 20.56° C 83% 1022.3 hPa 0 mm - 364 W/m² -
1787925272 20.56° C 82% 1022.3 hPa 0 mm - 365 W/m² -
1787924971 20° C 85% 1022.3 hPa 0 mm - 350 W/m² -
1787924666 20° C 85% 1022.6 hPa 0 mm - 359 W/m² -
1787924361 19.44° C 86% 1022.2 hPa 0 mm - 353 W/m² -
1787924056 18.89° C 86% 1022.5 hPa 0 mm - 338 W/m² -
1787923750 18.89° C 87% 1022.4 hPa 0 mm - 333 W/m² -
1787923446 18.89° C 89% 1022.4 hPa 0 mm - 491 W/m² -
1787923141 17.78° C 93% 1022.5 hPa 0 mm - 118 W/m² -
1787922836 17.22° C 99% 1022.3 hPa 0 mm - 108 W/m² -
1787922535 16.67° C 99% 1022.1 hPa 0 mm - 101 W/m² -
1787922234 16.11° C 99% 1022.1 hPa 0 mm - 96 W/m² -
1787921932 15.56° C 99% 1022.3 hPa 0 mm - 98 W/m² -
1787921627 15.56° C 99% 1022.2 hPa 0 mm - 119 W/m² -
1787921325 15° C 99% 1022.3 hPa 0 mm - 126 W/m² -
1787921022 15° C 99% 1022.2 hPa 0 mm - 84 W/m² -
1787920717 14.44° C 99% 1022 hPa 0 mm - 63 W/m² -
1787920417 14.44° C 99% 1021.9 hPa 0 mm - 56 W/m² -
1787920114 13.89° C 99% 1022 hPa 0 mm - 52 W/m² -
1787919809 13.89° C 99% 1021.6 hPa 0 mm - 49 W/m² -

* Rain latest hour (hover to see other rain measurements)
** Current wind speed in m/s (hover to see current wind gust speed)